Terminal Aerodrome Forecast
Issued by NWS

Home | Current Version | Previous Version | Text Only | Print | Product List | Glossary On
Versions: 1 2 3 4 5 6 7 8 9 10 11 12 13 14 15 16 17 18 19 20 21 22 23 24 25 26 27 28 29 30 31 32 33 34
000
FTUS44 KOUN 282320
TAFGAG
TAF
KGAG 282320Z 2900/2924 17010KT P6SM SCT120
     FM290800 18008KT P6SM BKN025 OVC100
     FM291200 16010KT P6SM OVC009
      TEMPO 2912/2916 5SM -TSRA BR BKN009 OVC014CB
     FM291600 14012KT P6SM OVC009
      TEMPO 2916/2920 5SM -TSRA BR BKN009 OVC014CB
     FM292000 16010G17KT P6SM BKN050=

USA.gov is the U.S. government's official web portal to all federal, state and local government web resources and services.